Capo Bellavista, Italia

11:50 AM CEST del 01 Agosto 2014 (GMT +0200)
Elmas Mil (LIEE) Alt. 13 ft | 39.24 °N, 9.06 °E | Change Station

Current weather conditions updated 30 minutes ago

Clear
Sereno
84 °F
Sembra 84 °F
N
12
Vento Variabile Vento da NNO

Oggi si prevede un abbassamento della temperatura rispetto a ieri.

Oggi
Massima -- | Minima -- °F
--% Possibilità di precip.
Ieri
Massima -- | Minima -- °F
Precip. -- in
6:19 AM 8:34 PM
Luna crescente, 25% visible
Pressione 29.89 in
Visibilità -9999.0 miglia
Nuvole
Indice di calore 84 °F
Punto di rugiada 61 °F
Umidità 45%
Piovosità 0.00 in
Spessore del manto nevoso Non disponibile.
Raggi UV Non disponibile.
Polline Non disponibile.
Qualità dell'aria Non disponibile.
Flu Activity Non disponibile.
METAR LIEE 010920Z 33010KT 300V010 CAVOK 29/16 Q1012

More Conditions Fewer Conditions

Pressione 29.89 in
Visibilità -9999.0 miglia
Nuvole
Indice di calore 84 °F
Punto di rugiada 61 °F
Umidità 45%
Piovosità 0.00 in
Spessore del manto nevoso Non disponibile.
Raggi UV Non disponibile.
Polline Non disponibile.
Qualità dell'aria Non disponibile.
Flu Activity Non disponibile.
METAR LIEE 010920Z 33010KT 300V010 CAVOK 29/16 Q1012

More Conditions Fewer Conditions

10-Day Weather Forecast

Almanac

Astronomia

Aug. 01, 2014 Alba Tramonto
Ora attuale 06:19 CEST 20:34 CEST
Crepuscolo civile 05:49 CEST 21:05 CEST
Crepuscolo nautico 05:11 CEST 21:42 CEST
Crepuscolo astronomico 04:30 CEST 22:22 CEST
Luna 11:27 CEST 23:10 CEST
Estensione della luce visibile 15h 15m
Lunghezza del giorno
14h 15m
Tomorrow will be 1m 59s shorter.
Luna crescente, 25% of the Moon is Illuminated
Oggi
Luna crescente
Ago 3
Primo quarto
Ago 10
Luna piena
Ago 17
Ultimo quarto
Ago 25
Nuovo

Minime e massime di ieri

Massime Regione Minime Regione

Community

WunderPhotos

Upload Photos

1,739,530 foto caricate!

Nearby

Qualità dell'aria

Not available.

Profondità neve

Not available.

Attività sismica

Città  Distanza Mag. Data & Ora
Non sono state riportate attività sismiche nelle vicinanze.
Minimo Magnitudo Mostrato è 2.5.

Temperature delle acque costiere

Località Temperatura
Nessun dato dalle stazioni

Stazioni meteo nelle vicinanze

In questa zona non ci sono stazioni meteo personali.